Time;durP1;ratioP1;P1;durP2;ratioP2;P2;SDS_P1;SDS_P2;PMS_P1;PMS_P2;Temp;Humidity;BMP_temperature;BMP_pressure;BME280_temperature;BME280_humidity;BME280_pressure;Samples;Min_cycle;Max_cycle;Signal;HPM_P1;HPM_P2
2023/03/22 00:01:45;;;;;;;6.70;3.40;;;;;;;11.19;100.00;100890.19;5187602;28;20022;-74
2023/03/22 00:04:16;;;;;;;6.43;3.50;;;;;;;11.26;100.00;100901.00;5187938;28;20050;-74
2023/03/22 00:06:47;;;;;;;7.40;3.38;;;;;;;11.22;100.00;100888.28;5186978;28;20055;-74
2023/03/22 00:09:19;;;;;;;7.63;3.13;;;;;;;11.23;100.00;100892.56;5186617;28;20038;-74
2023/03/22 00:11:50;;;;;;;7.15;3.00;;;;;;;11.16;100.00;100874.72;5188015;28;20491;-74
2023/03/22 00:14:22;;;;;;;7.82;3.05;;;;;;;11.17;100.00;100888.66;5182411;28;20030;-74
2023/03/22 00:16:53;;;;;;;5.68;2.70;;;;;;;11.10;100.00;100875.28;5187851;28;20030;-74
2023/03/22 00:19:25;;;;;;;8.13;2.92;;;;;;;11.14;100.00;100881.09;5185997;28;20109;-74
2023/03/22 00:21:56;;;;;;;7.85;3.15;;;;;;;11.14;100.00;100878.47;5186113;28;20031;-74
2023/03/22 00:24:28;;;;;;;8.05;2.75;;;;;;;11.07;100.00;100874.69;5185822;28;20493;-74
2023/03/22 00:26:59;;;;;;;5.72;2.40;;;;;;;11.05;100.00;100866.94;5185322;28;20055;-74
2023/03/22 00:29:31;;;;;;;6.60;2.67;;;;;;;11.02;100.00;100858.53;5183134;28;20053;-74
2023/03/22 00:32:03;;;;;;;8.20;2.60;;;;;;;11.08;100.00;100858.00;5181555;28;20042;-74
2023/03/22 00:34:34;;;;;;;6.75;2.92;;;;;;;11.04;100.00;100852.19;5188923;28;20097;-74
2023/03/22 00:37:06;;;;;;;8.50;2.92;;;;;;;11.00;100.00;100836.88;5183822;28;20038;-74
2023/03/22 00:39:38;;;;;;;9.73;3.10;;;;;;;11.04;100.00;100839.09;5187722;28;20118;-74
2023/03/22 00:42:09;;;;;;;7.70;2.88;;;;;;;10.93;100.00;100829.53;5188724;28;20364;-74
2023/03/22 00:44:41;;;;;;;7.18;2.60;;;;;;;11.06;100.00;100846.81;5184133;28;20031;-74
2023/03/22 00:47:12;;;;;;;8.05;3.47;;;;;;;11.06;100.00;100842.41;5183655;28;20037;-74
2023/03/22 00:49:44;;;;;;;11.77;3.20;;;;;;;11.02;100.00;100837.53;5183844;28;20535;-74
2023/03/22 00:52:15;;;;;;;7.20;3.35;;;;;;;11.03;100.00;100837.44;5184741;28;20400;-74
2023/03/22 00:54:46;;;;;;;7.65;3.13;;;;;;;10.95;100.00;100819.75;5188809;28;20121;-74
2023/03/22 00:57:18;;;;;;;5.93;2.85;;;;;;;11.02;100.00;100824.44;5184493;28;20039;-74
2023/03/22 00:59:49;;;;;;;9.27;3.83;;;;;;;11.01;100.00;100822.78;5183492;28;20385;-74
2023/03/22 01:02:28;;;;;;;9.23;3.22;;;;;;;10.95;100.00;100806.63;5189144;28;20062;-74
2023/03/22 01:04:59;;;;;;;8.43;4.15;;;;;;;11.03;100.00;100813.00;5183354;28;20022;-74
2023/03/22 01:07:31;;;;;;;10.68;4.07;;;;;;;11.00;100.00;100811.47;5188965;28;20081;-75
2023/03/22 01:10:05;;;;;;;10.35;4.35;;;;;;;11.09;100.00;100808.03;5184878;28;20109;-75
2023/03/22 01:12:36;;;;;;;9.32;5.28;;;;;;;11.04;100.00;100809.41;5184911;28;20121;-75
2023/03/22 01:15:09;;;;;;;9.63;5.28;;;;;;;11.04;100.00;100809.41;5186423;28;20030;-76
2023/03/22 01:17:40;;;;;;;11.18;5.93;;;;;;;11.11;100.00;100808.75;5185685;28;20445;-76
2023/03/22 01:20:11;;;;;;;9.70;5.82;;;;;;;11.04;100.00;100785.81;5183882;28;20027;-76
2023/03/22 01:22:43;;;;;;;12.13;6.60;;;;;;;11.10;100.00;100795.75;5186052;28;20097;-75
2023/03/22 01:25:15;;;;;;;10.70;6.53;;;;;;;11.20;100.00;100780.88;5182454;28;20045;-76
2023/03/22 01:27:46;;;;;;;12.48;7.03;;;;;;;11.14;100.00;100766.53;5185259;28;20425;-76
2023/03/22 01:30:17;;;;;;;9.90;6.22;;;;;;;11.29;100.00;100763.50;5185397;28;20161;-75
2023/03/22 01:32:49;;;;;;;10.80;6.75;;;;;;;11.30;100.00;100758.13;5184111;28;20041;-75
2023/03/22 01:35:20;;;;;;;10.13;6.88;;;;;;;11.28;100.00;100744.31;5184712;28;20141;-76
2023/03/22 01:37:51;;;;;;;11.00;6.95;;;;;;;11.40;100.00;100745.00;5185240;28;20072;-75
2023/03/22 01:40:22;;;;;;;8.88;7.07;;;;;;;11.38;100.00;100746.94;5178908;28;20104;-76
2023/03/22 01:42:54;;;;;;;11.77;7.70;;;;;;;11.33;100.00;100736.06;5184500;28;20058;-75
2023/03/22 01:45:36;;;;;;;11.45;7.65;;;;;;;11.56;100.00;100736.59;5184035;28;20073;-75
2023/03/22 01:48:29;;;;;;;11.20;7.28;;;;;;;11.63;100.00;100732.44;5177542;28;20031;-75
2023/03/22 01:51:14;;;;;;;10.80;6.70;;;;;;;11.57;100.00;100725.97;5186084;28;20104;-76
2023/03/22 01:53:53;;;;;;;9.13;7.35;;;;;;;11.47;100.00;100713.81;5185294;28;20061;-75
2023/03/22 01:56:28;;;;;;;9.07;7.22;;;;;;;11.38;100.00;100711.06;5179505;28;20030;-75
2023/03/22 01:59:00;;;;;;;10.23;7.57;;;;;;;11.42;100.00;100714.22;5186450;28;20034;-76
2023/03/22 02:01:33;;;;;;;8.52;7.53;;;;;;;11.42;100.00;100706.34;5185903;28;20030;-75
2023/03/22 02:04:16;;;;;;;10.98;8.02;;;;;;;11.62;100.00;100705.38;5183400;28;20219;-75
2023/03/22 02:06:53;;;;;;;10.07;7.43;;;;;;;11.50;100.00;100700.41;5184960;28;20026;-75
2023/03/22 02:09:24;;;;;;;10.93;7.95;;;;;;;11.44;100.00;100700.00;5185086;28;20113;-75
2023/03/22 02:12:36;;;;;;;11.38;8.00;;;;;;;11.80;100.00;100705.47;5185308;28;20030;-75
2023/03/22 02:15:19;;;;;;;8.60;7.03;;;;;;;11.68;100.00;100698.75;5177313;28;20042;-75
2023/03/22 02:18:20;;;;;;;11.90;7.88;;;;;;;11.75;100.00;100691.13;5188784;28;20656;-75
2023/03/22 02:21:21;;;;;;;11.25;7.90;;;;;;;11.67;100.00;100694.47;5182669;28;20031;-75
2023/03/22 02:24:27;;;;;;;12.75;8.38;;;;;;;11.79;100.00;100692.50;5184836;28;20480;-76
2023/03/22 02:27:05;;;;;;;11.10;7.88;;;;;;;11.69;100.00;100688.09;5180214;28;20051;-75
2023/03/22 02:29:45;;;;;;;9.43;7.65;;;;;;;11.63;100.00;100680.81;5184595;28;20121;-74
2023/03/22 02:32:27;;;;;;;12.52;8.63;;;;;;;11.57;100.00;100686.59;5182970;28;20038;-74
2023/03/22 02:35:36;;;;;;;13.88;8.55;;;;;;;11.74;100.00;100677.16;5185313;28;20023;-74
2023/03/22 02:38:15;;;;;;;11.25;8.25;;;;;;;11.63;100.00;100682.56;5186159;28;20030;-74
2023/03/22 02:41:10;;;;;;;9.55;7.55;;;;;;;11.78;100.00;100683.81;5182747;28;20022;-74
2023/03/22 02:43:57;;;;;;;12.18;8.10;;;;;;;11.69;100.00;100674.16;5181767;28;20495;-74
2023/03/22 02:46:34;;;;;;;9.80;7.53;;;;;;;11.62;100.00;100678.28;5180210;28;20034;-75
2023/03/22 02:49:25;;;;;;;11.35;7.18;;;;;;;11.79;100.00;100674.13;5186593;28;20030;-76
2023/03/22 02:52:16;;;;;;;7.70;6.80;;;;;;;11.76;100.00;100670.00;5184528;28;20033;-75
2023/03/22 02:54:55;;;;;;;8.70;6.50;;;;;;;11.66;100.00;100670.00;5185523;28;20057;-75
2023/03/22 02:57:39;;;;;;;11.00;7.32;;;;;;;11.59;100.00;100634.81;5177414;28;20039;-75
2023/03/22 03:00:14;;;;;;;10.68;6.38;;;;;;;11.60;100.00;100644.34;5182281;28;20524;-75
2023/03/22 03:02:52;;;;;;;9.27;6.28;;;;;;;11.67;100.00;100655.09;5183329;28;20415;-76
2023/03/22 03:05:29;;;;;;;9.43;5.90;;;;;;;11.65;100.00;100657.84;5182706;28;20045;-75
2023/03/22 03:08:01;;;;;;;8.38;6.55;;;;;;;11.60;100.00;100641.72;5182787;28;20054;-75
2023/03/22 03:10:33;;;;;;;8.63;6.20;;;;;;;11.64;100.00;100647.50;5183510;28;20035;-75
2023/03/22 03:13:04;;;;;;;8.15;6.40;;;;;;;11.57;100.00;100643.78;5181293;28;20452;-75
2023/03/22 03:15:41;;;;;;;8.65;5.20;;;;;;;11.66;100.00;100645.56;5180923;28;20046;-74
2023/03/22 03:18:19;;;;;;;7.63;5.25;;;;;;;11.56;100.00;100647.41;5185819;28;20459;-75
2023/03/22 03:21:16;;;;;;;8.82;5.53;;;;;;;11.81;100.00;100630.19;5181834;28;20034;-74
2023/03/22 03:24:10;;;;;;;8.25;4.80;;;;;;;11.79;100.00;100646.09;5180106;28;20045;-76
2023/03/22 03:26:47;;;;;;;11.38;5.20;;;;;;;11.63;100.00;100632.72;5181522;28;20043;-76
2023/03/22 03:29:26;;;;;;;6.70;4.82;;;;;;;11.64;100.00;100644.88;5180903;28;20117;-75
2023/03/22 03:32:25;;;;;;;9.52;5.10;;;;;;;11.72;100.00;100639.75;5182995;28;20030;-75
2023/03/22 03:35:06;;;;;;;6.95;4.70;;;;;;;11.63;100.00;100638.81;5187867;28;20036;-75
2023/03/22 03:37:45;;;;;;;6.75;4.97;;;;;;;11.54;100.00;100634.41;5183523;28;20172;-75
2023/03/22 03:40:42;;;;;;;6.55;4.38;;;;;;;11.81;100.00;100633.63;5190592;28;20034;-75
2023/03/22 03:43:15;;;;;;;6.20;4.40;;;;;;;11.51;100.00;100626.81;5183470;28;20063;-76
2023/03/22 03:45:46;;;;;;;7.38;4.18;;;;;;;11.55;100.00;100632.59;5184952;28;20026;-74
2023/03/22 03:48:22;;;;;;;9.05;4.40;;;;;;;11.58;100.00;100640.19;5191025;28;20030;-75
2023/03/22 03:50:56;;;;;;;9.38;4.22;;;;;;;11.55;100.00;100645.72;5183789;28;20061;-75
2023/03/22 03:53:28;;;;;;;6.03;4.05;;;;;;;11.44;100.00;100631.00;5184752;28;20069;-75
2023/03/22 03:55:59;;;;;;;6.63;4.30;;;;;;;11.42;100.00;100644.22;5184331;28;20062;-75
2023/03/22 03:58:30;;;;;;;7.65;4.03;;;;;;;11.47;100.00;100642.97;5187913;28;20110;-75
2023/03/22 04:01:02;;;;;;;5.80;3.83;;;;;;;11.46;100.00;100644.78;5183286;28;20045;-76
2023/03/22 04:03:34;;;;;;;6.95;3.70;;;;;;;11.43;100.00;100647.69;5190737;28;20058;-75
2023/03/22 04:06:07;;;;;;;7.90;3.95;;;;;;;11.42;100.00;100638.16;5185035;28;20491;-75
2023/03/22 04:08:40;;;;;;;5.20;3.50;;;;;;;11.32;100.00;100632.09;5184151;28;20558;-75
2023/03/22 04:11:11;;;;;;;6.47;4.18;;;;;;;11.32;100.00;100626.84;5187269;28;20031;-75
2023/03/22 04:13:42;;;;;;;9.55;3.85;;;;;;;11.30;100.00;100647.97;5188023;28;20027;-75
2023/03/22 04:16:14;;;;;;;7.82;3.60;;;;;;;11.28;100.00;100634.16;5186730;28;20032;-75
2023/03/22 04:18:45;;;;;;;8.77;3.70;;;;;;;11.24;100.00;100629.34;5184966;28;20019;-75
2023/03/22 04:21:16;;;;;;;6.38;3.65;;;;;;;11.26;100.00;100635.28;5187406;28;20033;-75
2023/03/22 04:23:48;;;;;;;8.52;4.05;;;;;;;11.26;100.00;100632.66;5188332;28;20408;-75
2023/03/22 04:26:19;;;;;;;5.70;3.38;;;;;;;11.19;100.00;100627.97;5186925;28;20428;-76
2023/03/22 04:28:50;;;;;;;6.22;3.45;;;;;;;11.23;100.00;100618.03;5189042;28;20031;-75
2023/03/22 04:31:22;;;;;;;9.85;4.03;;;;;;;11.11;100.00;100613.91;5187000;28;20037;-75
2023/03/22 04:33:53;;;;;;;7.18;3.70;;;;;;;11.18;100.00;100625.50;5185471;28;20120;-75
2023/03/22 04:36:30;;;;;;;8.95;3.60;;;;;;;11.02;100.00;100596.38;5184193;28;20277;-75
2023/03/22 04:39:07;;;;;;;8.93;3.65;;;;;;;11.16;100.00;100611.69;5183941;28;20389;-75
2023/03/22 04:41:39;;;;;;;5.53;3.58;;;;;;;11.05;100.00;100615.28;5186875;28;20503;-74
2023/03/22 04:44:10;;;;;;;7.60;3.17;;;;;;;11.06;100.00;100616.09;5184722;28;20137;-75
2023/03/22 04:46:43;;;;;;;8.68;3.47;;;;;;;10.99;100.00;100609.78;5186546;28;20033;-75
2023/03/22 04:49:14;;;;;;;6.10;3.40;;;;;;;11.05;100.00;100622.31;5186293;28;20026;-75
2023/03/22 04:51:46;;;;;;;8.23;3.85;;;;;;;11.02;100.00;100620.78;5181853;28;20034;-75
2023/03/22 04:54:17;;;;;;;9.82;3.70;;;;;;;11.05;100.00;100615.28;5182200;28;20359;-75
2023/03/22 04:56:49;;;;;;;5.78;3.70;;;;;;;11.04;100.00;100612.81;5184602;28;20030;-75
2023/03/22 04:59:20;;;;;;;7.43;3.47;;;;;;;11.05;100.00;100624.94;5187490;28;20134;-76
2023/03/22 05:01:52;;;;;;;6.82;3.17;;;;;;;11.01;100.00;100607.84;5182636;28;20121;-74
2023/03/22 05:04:23;;;;;;;8.52;3.30;;;;;;;11.02;100.00;100606.84;5188794;28;20031;-74
2023/03/22 05:06:54;;;;;;;7.40;3.35;;;;;;;11.03;100.00;100613.78;5192031;28;20072;-75
2023/03/22 05:09:26;;;;;;;9.60;3.50;;;;;;;11.05;100.00;100610.03;5189184;28;20556;-75
2023/03/22 05:11:57;;;;;;;7.95;3.30;;;;;;;11.02;100.00;100601.63;5183690;28;20026;-75
2023/03/22 05:14:28;;;;;;;7.72;3.08;;;;;;;11.08;100.00;100606.31;5188394;28;20027;-75
2023/03/22 05:17:00;;;;;;;8.10;3.22;;;;;;;11.05;100.00;100604.78;5186676;28;20034;-75
2023/03/22 05:19:31;;;;;;;6.32;3.20;;;;;;;11.01;100.00;100599.97;5182168;28;20022;-75
2023/03/22 05:22:03;;;;;;;7.07;3.10;;;;;;;11.02;100.00;100602.44;5185110;28;20027;-75
2023/03/22 05:24:34;;;;;;;5.30;2.78;;;;;;;11.06;100.00;100595.97;5188972;28;20117;-75
2023/03/22 05:27:06;;;;;;;7.70;3.33;;;;;;;10.98;100.00;100598.44;5181169;28;20046;-75
2023/03/22 05:29:37;;;;;;;7.40;2.42;;;;;;;10.99;100.00;100604.53;5186334;28;20026;-75
2023/03/22 05:32:08;;;;;;;6.82;3.03;;;;;;;11.02;100.00;100604.22;5187411;28;20529;-75
2023/03/22 05:34:40;;;;;;;6.03;2.40;;;;;;;11.05;100.00;100606.59;5183968;28;20027;-75
2023/03/22 05:37:12;;;;;;;6.25;2.42;;;;;;;11.03;100.00;100608.53;5183862;28;20039;-75
2023/03/22 05:39:43;;;;;;;7.50;2.80;;;;;;;11.00;100.00;100585.22;5186388;28;20066;-74
2023/03/22 05:42:14;;;;;;;6.55;2.83;;;;;;;11.03;100.00;100596.25;5184482;28;20030;-75
2023/03/22 05:44:46;;;;;;;10.57;3.20;;;;;;;11.02;100.00;100597.19;5179931;28;20104;-75
2023/03/22 05:47:17;;;;;;;7.20;2.70;;;;;;;10.99;100.00;100594.88;5182411;28;20082;-75
2023/03/22 05:49:48;;;;;;;7.97;2.63;;;;;;;11.02;100.00;100599.00;5188673;28;20062;-75
2023/03/22 05:52:19;;;;;;;8.18;2.67;;;;;;;11.00;100.00;100604.38;5186568;28;20081;-75
2023/03/22 05:54:51;;;;;;;9.60;2.97;;;;;;;10.98;100.00;100602.84;5187087;28;20099;-75
2023/03/22 05:57:22;;;;;;;7.00;2.45;;;;;;;10.98;100.00;100595.81;5178936;28;20045;-75
2023/03/22 05:59:53;;;;;;;6.00;2.55;;;;;;;11.03;100.00;100605.91;5183406;28;20026;-75
2023/03/22 06:02:25;;;;;;;9.43;3.00;;;;;;;11.04;100.00;100607.56;5183808;28;20073;-75
2023/03/22 06:04:56;;;;;;;6.95;2.70;;;;;;;11.09;100.00;100607.97;5180009;28;20035;-75
2023/03/22 06:07:27;;;;;;;7.63;2.70;;;;;;;11.08;100.00;100598.44;5181581;28;20065;-75
2023/03/22 06:09:59;;;;;;;7.32;2.75;;;;;;;11.11;100.00;100603.41;5183524;28;20062;-75
2023/03/22 06:12:31;;;;;;;6.90;2.80;;;;;;;11.04;100.00;100592.66;5183768;28;20161;-75
2023/03/22 06:15:03;;;;;;;7.60;2.50;;;;;;;11.10;100.00;100607.84;5182897;28;20026;-75
2023/03/22 06:17:35;;;;;;;5.88;2.28;;;;;;;11.09;100.00;100600.09;5185921;28;20045;-76
2023/03/22 06:20:10;;;;;;;6.03;2.73;;;;;;;11.10;100.00;100597.34;5182876;28;20484;-75
2023/03/22 06:22:42;;;;;;;6.05;2.67;;;;;;;11.13;100.00;100601.47;5181570;28;20038;-76
2023/03/22 06:25:13;;;;;;;7.85;2.70;;;;;;;11.15;100.00;100591.69;5186764;28;20038;-76
2023/03/22 06:27:45;;;;;;;4.90;2.42;;;;;;;11.19;100.00;100608.78;5184505;28;20045;-75
2023/03/22 06:30:16;;;;;;;5.50;2.88;;;;;;;11.22;100.00;100595.41;5183063;28;20043;-75
2023/03/22 06:32:47;;;;;;;8.05;3.15;;;;;;;11.20;100.00;100605.19;5175388;28;20097;-75
2023/03/22 06:35:19;;;;;;;5.57;2.45;;;;;;;11.33;100.00;100602.28;5182938;28;20027;-76
2023/03/22 06:37:50;;;;;;;7.05;2.72;;;;;;;11.35;100.00;100595.09;5180147;28;20104;-75
2023/03/22 06:40:21;;;;;;;8.40;2.90;;;;;;;11.34;100.00;100591.66;5171603;28;20121;-75
2023/03/22 06:42:53;;;;;;;9.82;3.10;;;;;;;11.36;100.00;100594.94;5172133;28;20035;-75
2023/03/22 06:45:24;;;;;;;6.57;2.85;;;;;;;11.41;100.00;100611.09;5178502;28;20108;-75
2023/03/22 06:47:56;;;;;;;8.60;2.80;;;;;;;11.44;100.00;100612.63;5174509;28;20451;-75
2023/03/22 06:50:27;;;;;;;10.77;3.10;;;;;;;11.55;100.00;100611.59;5181334;28;20034;-75
2023/03/22 06:52:59;;;;;;;9.15;3.28;;;;;;;11.57;100.00;100597.38;5178616;28;20030;-76
2023/03/22 06:55:34;;;;;;;8.50;2.85;;;;;;;11.58;100.00;100583.28;5178655;28;20134;-75
2023/03/22 06:58:05;;;;;;;10.18;3.35;;;;;;;11.68;100.00;100591.97;5178780;28;20026;-75
2023/03/22 07:00:37;;;;;;;7.95;3.47;;;;;;;11.82;100.00;100601.19;5179153;28;20034;-75
2023/03/22 07:03:09;;;;;;;10.20;3.47;;;;;;;11.84;100.00;100601.06;5181224;28;20620;-75
2023/03/22 07:05:40;;;;;;;9.02;3.80;;;;;;;11.81;100.00;100607.38;5181888;28;20022;-76
2023/03/22 07:08:11;;;;;;;10.60;3.97;;;;;;;11.79;100.00;100604.09;5175660;28;20381;-75
2023/03/22 07:10:48;;;;;;;7.70;3.22;;;;;;;11.89;100.00;100598.81;5180760;28;20059;-76
2023/03/22 07:13:19;;;;;;;8.80;3.05;;;;;;;11.81;100.00;100596.06;5184054;28;20026;-76
2023/03/22 07:15:55;;;;;;;6.63;3.20;;;;;;;11.98;100.00;100589.28;5181477;28;20041;-76
2023/03/22 07:18:28;;;;;;;10.52;3.00;;;;;;;11.84;100.00;100585.31;5183473;28;20085;-76
2023/03/22 07:20:59;;;;;;;6.60;2.80;;;;;;;11.88;100.00;100594.56;5184215;28;20395;-76
2023/03/22 07:23:30;;;;;;;7.10;3.30;;;;;;;12.00;100.00;100600.44;5184697;28;20031;-75
2023/03/22 07:26:02;;;;;;;10.10;3.28;;;;;;;11.98;100.00;100597.16;5177882;28;20101;-76
2023/03/22 07:28:34;;;;;;;9.85;3.63;;;;;;;12.07;100.00;100602.34;5180355;28;20042;-75
2023/03/22 07:31:10;;;;;;;8.30;3.60;;;;;;;12.12;100.00;100609.78;5182868;28;20218;-75
2023/03/22 07:33:42;;;;;;;7.70;3.67;;;;;;;12.10;100.00;100609.09;5183400;28;20062;-75
2023/03/22 07:36:14;;;;;;;8.57;4.13;;;;;;;12.16;100.00;100611.97;5176680;28;20429;-76
2023/03/22 07:38:45;;;;;;;9.15;3.97;;;;;;;12.22;100.00;100615.81;5179003;28;20052;-75
2023/03/22 07:41:17;;;;;;;9.38;3.53;;;;;;;12.18;100.00;100598.69;5181797;28;20026;-76
2023/03/22 07:43:49;;;;;;;7.93;3.35;;;;;;;12.20;100.00;100607.25;5183673;28;20031;-75
2023/03/22 07:46:20;;;;;;;9.07;3.25;;;;;;;12.30;100.00;100612.44;5181780;28;20030;-75
2023/03/22 07:48:52;;;;;;;7.10;3.28;;;;;;;12.41;100.00;100612.25;5179656;28;20034;-75
2023/03/22 07:51:23;;;;;;;7.88;3.50;;;;;;;12.47;100.00;100606.41;5181088;28;20027;-75
2023/03/22 07:53:54;;;;;;;6.90;2.67;;;;;;;12.46;100.00;100599.47;5181504;28;20344;-75
2023/03/22 07:56:26;;;;;;;7.30;2.85;;;;;;;12.63;100.00;100613.63;5181491;28;20034;-75
2023/03/22 07:58:57;;;;;;;9.20;2.67;;;;;;;12.57;100.00;100609.78;5177543;28;20031;-76
2023/03/22 08:01:28;;;;;;;7.05;2.75;;;;;;;12.66;100.00;100608.91;5175274;28;20038;-75
2023/03/22 08:04:00;;;;;;;7.45;2.88;;;;;;;12.64;100.00;100592.44;5183063;28;20022;-75
2023/03/22 08:06:31;;;;;;;8.65;2.88;;;;;;;12.79;100.00;100626.09;5184875;28;20137;-75
2023/03/22 08:09:03;;;;;;;6.70;2.58;;;;;;;12.81;100.00;100618.91;5178852;28;20046;-76
2023/03/22 08:11:35;;;;;;;8.02;2.88;;;;;;;12.83;100.00;100619.56;5176816;28;20034;-75
2023/03/22 08:14:07;;;;;;;10.02;2.63;;;;;;;12.82;100.00;100607.41;5177763;28;20030;-75
2023/03/22 08:16:40;;;;;;;7.50;2.20;;;;;;;12.85;100.00;100615.81;5177906;28;20039;-75
2023/03/22 08:19:11;;;;;;;6.53;2.10;;;;;;;12.92;100.00;100621.31;5182761;28;20069;-75
2023/03/22 08:21:43;;;;;;;6.97;1.88;;;;;;;13.00;100.00;100623.19;5184992;28;20027;-75
2023/03/22 08:24:14;;;;;;;7.13;2.17;;;;;;;13.04;100.00;100617.47;5184649;28;20042;-76
2023/03/22 08:26:48;;;;;;;11.05;2.55;;;;;;;13.08;100.00;100612.72;5187276;28;20451;-76
2023/03/22 08:29:22;;;;;;;8.05;2.63;;;;;;;13.24;100.00;100606.81;5184658;28;20039;-75
2023/03/22 08:31:54;;;;;;;10.65;2.55;;;;;;;13.22;100.00;100612.19;5179410;28;20491;-74
2023/03/22 08:34:26;;;;;;;8.33;2.37;;;;;;;13.33;100.00;100614.63;5183876;28;20045;-76
2023/03/22 08:36:57;;;;;;;8.55;2.63;;;;;;;13.32;100.00;100594.53;5184033;28;20282;-75
2023/03/22 08:39:29;;;;;;;10.98;2.70;;;;;;;13.49;100.00;100599.91;5182018;28;20022;-76
2023/03/22 08:42:00;;;;;;;7.57;2.28;;;;;;;13.50;99.61;100591.03;5180715;28;20045;-76
2023/03/22 08:44:31;;;;;;;9.52;2.88;;;;;;;13.53;99.48;100594.19;5177184;28;20014;-76
2023/03/22 08:47:03;;;;;;;5.93;2.30;;;;;;;13.69;99.29;100600.50;5181713;28;20404;-76
2023/03/22 08:49:35;;;;;;;10.15;2.22;;;;;;;13.72;99.79;100605.47;5177544;28;20030;-76
2023/03/22 08:52:07;;;;;;;8.88;2.38;;;;;;;13.76;98.32;100598.91;5181166;28;20034;-76
2023/03/22 08:54:38;;;;;;;8.48;2.38;;;;;;;13.84;96.91;100594.50;5181807;28;20366;-75
2023/03/22 08:57:10;;;;;;;8.85;2.55;;;;;;;13.81;96.60;100602.72;5181043;28;20089;-76
2023/03/22 08:59:41;;;;;;;10.73;3.08;;;;;;;13.86;96.31;100600.44;5181196;28;20030;-75
2023/03/22 09:02:12;;;;;;;7.95;2.38;;;;;;;13.74;94.21;100601.69;5182149;28;20034;-75
2023/03/22 09:04:44;;;;;;;8.38;2.22;;;;;;;13.67;94.16;100584.84;5182687;28;20022;-76
2023/03/22 09:07:19;;;;;;;9.35;1.90;;;;;;;13.79;94.60;100582.81;5180896;28;20066;-76
2023/03/22 09:09:50;;;;;;;14.70;2.40;;;;;;;13.78;92.99;100602.19;5182206;28;20039;-76
2023/03/22 09:12:21;;;;;;;12.75;2.95;;;;;;;13.81;93.98;100600.06;5184252;28;20484;-76
2023/03/22 09:14:53;;;;;;;8.80;1.90;;;;;;;13.97;93.75;100598.50;5181556;28;20031;-76
2023/03/22 09:17:24;;;;;;;8.00;1.80;;;;;;;13.94;92.44;100594.41;5178641;28;20026;-76
2023/03/22 09:19:55;;;;;;;6.03;2.20;;;;;;;13.99;92.50;100576.28;5184861;28;20022;-75
2023/03/22 09:22:27;;;;;;;7.75;2.33;;;;;;;14.15;91.46;100574.69;5182136;28;20104;-75
2023/03/22 09:24:58;;;;;;;7.55;1.65;;;;;;;14.15;90.98;100585.25;5181239;28;20038;-75
2023/03/22 09:27:30;;;;;;;5.35;1.60;;;;;;;14.14;90.49;100592.31;5178441;28;20101;-75
2023/03/22 09:30:01;;;;;;;7.03;1.90;;;;;;;14.25;89.82;100581.50;5181534;28;20117;-76
2023/03/22 09:32:32;;;;;;;8.15;2.17;;;;;;;14.26;88.04;100583.13;5182767;28;20480;-75
2023/03/22 09:35:05;;;;;;;10.05;2.65;;;;;;;14.20;87.77;100573.22;5184763;28;20124;-75
2023/03/22 09:37:36;;;;;;;9.50;2.17;;;;;;;14.19;88.71;100584.75;5180038;28;20177;-75
2023/03/22 09:40:10;;;;;;;12.60;2.58;;;;;;;14.23;89.69;100580.81;5180781;28;20450;-75
2023/03/22 09:42:45;;;;;;;11.27;2.45;;;;;;;14.12;88.10;100571.38;5184055;28;20080;-75
2023/03/22 09:45:29;;;;;;;8.38;2.20;;;;;;;14.23;88.55;100578.19;5184896;28;20035;-76
2023/03/22 09:48:05;;;;;;;7.05;1.95;;;;;;;14.14;89.21;100576.53;5183138;28;20023;-75
2023/03/22 09:50:44;;;;;;;9.20;2.35;;;;;;;14.17;87.56;100562.19;5182996;28;20026;-76
2023/03/22 09:53:19;;;;;;;6.75;1.70;;;;;;;14.13;88.88;100577.50;5183543;28;20034;-75
2023/03/22 09:56:08;;;;;;;8.95;2.50;;;;;;;14.18;88.79;100572.56;5179311;28;20041;-75
2023/03/22 09:59:00;;;;;;;7.97;1.98;;;;;;;14.23;88.80;100582.63;5183189;28;20038;-75
2023/03/22 10:01:49;;;;;;;7.82;1.83;;;;;;;14.09;89.60;100577.00;5182310;28;20392;-75
2023/03/22 10:04:40;;;;;;;8.43;2.28;;;;;;;14.09;89.20;100576.16;5183124;28;20425;-75
2023/03/22 10:07:33;;;;;;;12.25;2.63;;;;;;;14.12;88.91;100575.84;5181898;28;20410;-75
2023/03/22 10:10:11;;;;;;;8.38;1.63;;;;;;;14.15;89.71;100583.44;5182357;28;20478;-76
2023/03/22 10:13:05;;;;;;;8.02;1.80;;;;;;;14.08;89.52;100585.03;5178504;28;20039;-75
2023/03/22 10:15:44;;;;;;;;;;;;;;;14.44;87.65;100576.94;5185993;28;20228;-75
2023/03/22 10:18:20;;;;;;;7.25;1.63;;;;;;;14.02;92.02;100580.44;5179879;28;19914;-75
2023/03/22 10:21:02;;;;;;;7.38;2.00;;;;;;;14.03;92.74;100582.91;5181560;28;20396;-75
2023/03/22 10:23:43;;;;;;;6.28;1.77;;;;;;;13.93;95.27;100594.53;5183082;28;20488;-75
2023/03/22 10:26:22;;;;;;;14.38;2.25;;;;;;;13.52;97.46;100603.03;5184825;28;20035;-75
2023/03/22 10:29:03;;;;;;;11.38;2.40;;;;;;;13.55;99.37;100601.91;5180286;28;20050;-75
2023/03/22 10:31:34;;;;;;;7.95;2.10;;;;;;;13.48;100.00;100608.75;5174244;28;20038;-75
2023/03/22 10:34:13;;;;;;;6.85;1.90;;;;;;;13.38;100.00;100606.25;5182598;28;20030;-75
2023/03/22 10:36:46;;;;;;;7.82;1.90;;;;;;;13.17;100.00;100603.91;5182164;28;20035;-75
2023/03/22 10:39:39;;;;;;;5.75;1.77;;;;;;;13.36;100.00;100595.88;5186330;28;20484;-76
2023/03/22 10:42:19;;;;;;;8.63;2.00;;;;;;;13.32;100.00;100601.59;5181133;28;20085;-76
2023/03/22 10:45:04;;;;;;;5.35;1.73;;;;;;;13.23;100.00;100599.84;5180998;28;20436;-75
2023/03/22 10:47:41;;;;;;;7.75;2.22;;;;;;;13.16;100.00;100589.13;5182658;28;20531;-75
2023/03/22 10:50:21;;;;;;;5.82;2.17;;;;;;;13.31;100.00;100590.25;5186639;28;20030;-75
2023/03/22 10:53:11;;;;;;;6.55;1.80;;;;;;;13.31;100.00;100598.13;5178811;28;20034;-75
2023/03/22 10:55:43;;;;;;;6.80;1.90;;;;;;;13.13;100.00;100589.41;5176289;28;20567;-76
2023/03/22 10:58:18;;;;;;;6.90;2.10;;;;;;;13.25;100.00;100592.66;5182014;28;20027;-76
2023/03/22 11:00:52;;;;;;;5.95;2.13;;;;;;;13.10;100.00;100600.25;5183516;28;20049;-75
2023/03/22 11:03:40;;;;;;;10.43;2.47;;;;;;;13.10;100.00;100593.16;5183392;28;20034;-75
2023/03/22 11:06:15;;;;;;;9.32;2.17;;;;;;;12.95;100.00;100596.50;5184120;28;20038;-76
2023/03/22 11:08:56;;;;;;;9.18;2.58;;;;;;;12.96;100.00;100596.38;5181758;28;20419;-76
2023/03/22 11:11:31;;;;;;;6.65;2.38;;;;;;;12.89;100.00;100590.06;5180136;28;20070;-75
2023/03/22 11:14:15;;;;;;;8.80;2.35;;;;;;;12.94;100.00;100586.97;5181734;28;20022;-76
2023/03/22 11:17:11;;;;;;;9.65;2.35;;;;;;;13.11;100.00;100588.75;5179094;28;20492;-76
2023/03/22 11:19:56;;;;;;;6.72;2.40;;;;;;;13.22;100.00;100585.03;5181098;28;20026;-76
2023/03/22 11:22:43;;;;;;;9.43;3.13;;;;;;;13.46;100.00;100587.88;5178086;28;20070;-75
2023/03/22 11:25:28;;;;;;;8.45;2.63;;;;;;;13.38;100.00;100582.56;5178716;28;20034;-76
2023/03/22 11:28:14;;;;;;;6.28;2.22;;;;;;;13.38;100.00;100578.13;5180276;28;20369;-75
2023/03/22 11:31:02;;;;;;;5.97;2.58;;;;;;;13.44;100.00;100584.56;5182855;28;20125;-75
2023/03/22 11:33:35;;;;;;;7.00;2.13;;;;;;;13.32;100.00;100584.00;5180642;28;20440;-75
2023/03/22 11:36:17;;;;;;;5.60;2.20;;;;;;;13.61;100.00;100580.22;5182075;28;20026;-76
2023/03/22 11:38:57;;;;;;;5.93;2.00;;;;;;;13.51;100.00;100574.25;5182439;28;20678;-75
2023/03/22 11:41:33;;;;;;;6.53;2.05;;;;;;;13.58;100.00;100585.81;5181128;28;20286;-76
2023/03/22 11:44:09;;;;;;;6.07;2.60;;;;;;;13.46;100.00;100584.44;5181815;28;20030;-75
2023/03/22 11:47:00;;;;;;;8.10;2.15;;;;;;;13.76;100.00;100577.84;5180807;28;20462;-75
2023/03/22 11:49:56;;;;;;;6.22;1.70;;;;;;;13.50;100.00;100575.22;5181444;28;20042;-75
2023/03/22 11:52:27;;;;;;;6.57;2.20;;;;;;;13.48;100.00;100580.63;5181591;28;20122;-76
2023/03/22 11:54:59;;;;;;;5.38;1.90;;;;;;;13.53;100.00;100574.94;5183119;28;20436;-75